Time;durP1;ratioP1;P1;durP2;ratioP2;P2;SDS_P1;SDS_P2;PMS_P1;PMS_P2;Temp;Humidity;BMP_temperature;BMP_pressure;BME280_temperature;BME280_humidity;BME280_pressure;Samples;Min_cycle;Max_cycle;Signal;HPM_P1;HPM_P2
2023/03/04 00:00:45;;;;;;;11.55;1.92;;;15.90;64.00;;;;;;3916607;30;20070;-69
2023/03/04 00:03:27;;;;;;;9.48;2.08;;;15.90;63.60;;;;;;3926323;30;20055;-70
2023/03/04 00:06:08;;;;;;;6.60;1.27;;;15.80;63.40;;;;;;3927357;30;20058;-70
2023/03/04 00:08:49;;;;;;;9.68;1.75;;;15.70;63.70;;;;;;3927392;30;20067;-70
2023/03/04 00:11:30;;;;;;;6.13;1.43;;;15.80;64.10;;;;;;3927214;30;20378;-68
2023/03/04 00:14:11;;;;;;;7.95;2.17;;;15.80;64.30;;;;;;3926757;30;20305;-70
2023/03/04 00:16:55;;;;;;;6.93;2.00;;;15.80;64.40;;;;;;3926292;30;20212;-69
2023/03/04 00:19:38;;;;;;;9.45;2.38;;;15.80;63.80;;;;;;3916049;30;20074;-69
2023/03/04 00:22:18;;;;;;;10.13;2.33;;;15.90;63.40;;;;;;3926371;30;20104;-69
2023/03/04 00:24:59;;;;;;;7.50;2.00;;;16.00;63.60;;;;;;3927090;30;20051;-69
2023/03/04 00:27:40;;;;;;;8.60;2.05;;;16.10;63.50;;;;;;3927029;30;20059;-69
2023/03/04 00:30:22;;;;;;;7.85;1.88;;;16.10;63.10;;;;;;3926573;30;20063;-69
2023/03/04 00:33:03;;;;;;;7.45;1.55;;;16.20;63.00;;;;;;3913374;30;20623;-69
2023/03/04 00:35:45;;;;;;;6.88;1.83;;;16.20;62.80;;;;;;3912596;30;20064;-70
2023/03/04 00:38:26;;;;;;;9.73;2.00;;;16.20;63.30;;;;;;3901694;30;20058;-69
2023/03/04 00:41:07;;;;;;;7.68;2.10;;;16.20;61.80;;;;;;3901801;30;20052;-69
2023/03/04 00:43:47;;;;;;;10.90;1.48;;;16.20;62.10;;;;;;3912495;30;20206;-69
2023/03/04 00:46:28;;;;;;;8.65;2.00;;;16.20;62.50;;;;;;3901719;30;20145;-69
2023/03/04 00:49:10;;;;;;;10.48;1.73;;;16.10;62.50;;;;;;3901416;30;20067;-69
2023/03/04 00:51:52;;;;;;;9.07;1.88;;;16.10;62.80;;;;;;3921625;30;20070;-69
2023/03/04 00:54:32;;;;;;;11.90;1.70;;;16.00;63.10;;;;;;3926818;30;20106;-70
2023/03/04 00:57:13;;;;;;;8.75;1.67;;;16.00;63.40;;;;;;3926774;30;20104;-70
2023/03/04 00:59:54;;;;;;;8.97;1.37;;;16.00;64.30;;;;;;3915823;30;20071;-70
2023/03/04 01:02:36;;;;;;;8.32;1.90;;;16.00;63.40;;;;;;3895175;30;20063;-70
2023/03/04 01:05:17;;;;;;;4.77;1.73;;;16.00;63.70;;;;;;3912130;30;20063;-70
2023/03/04 01:07:59;;;;;;;13.20;2.40;;;16.10;63.40;;;;;;3901472;30;20068;-70
2023/03/04 01:10:40;;;;;;;10.80;1.70;;;16.20;63.10;;;;;;3913728;30;20071;-70
2023/03/04 01:13:21;;;;;;;14.10;2.50;;;16.20;62.70;;;;;;3926307;30;20114;-69
2023/03/04 01:16:02;;;;;;;9.50;1.50;;;16.20;62.50;;;;;;3926363;30;20113;-70
2023/03/04 01:18:43;;;;;;;9.30;1.90;;;16.20;62.60;;;;;;3915580;30;20074;-70
2023/03/04 01:21:24;;;;;;;9.80;1.90;;;16.20;62.60;;;;;;3926246;30;20145;-66
2023/03/04 01:24:07;;;;;;;12.67;2.30;;;16.20;63.20;;;;;;3915348;30;20137;-67
2023/03/04 01:26:48;;;;;;;6.93;1.75;;;16.20;61.90;;;;;;3924934;30;20178;-70
2023/03/04 01:29:29;;;;;;;7.82;2.22;;;16.10;62.40;;;;;;3926379;30;20201;-70
2023/03/04 01:32:10;;;;;;;10.85;2.60;;;16.10;62.80;;;;;;3914563;30;20063;-67
2023/03/04 01:34:50;;;;;;;8.50;2.25;;;16.10;62.80;;;;;;3915132;30;20067;-67
2023/03/04 01:37:31;;;;;;;11.30;1.90;;;16.20;62.30;;;;;;3926148;30;20055;-67
2023/03/04 01:40:14;;;;;;;7.50;1.70;;;16.20;62.30;;;;;;3926221;30;20054;-66
2023/03/04 01:42:55;;;;;;;6.70;1.98;;;16.20;62.10;;;;;;3900904;30;20348;-66
2023/03/04 01:45:36;;;;;;;7.72;1.50;;;16.20;61.60;;;;;;3925880;30;20110;-66
2023/03/04 01:48:27;;;;;;;8.65;2.30;;;16.20;61.30;;;;;;3925999;30;20106;-66
2023/03/04 01:51:14;;;;;;;7.88;1.85;;;16.20;62.00;;;;;;3923495;30;20060;-66
2023/03/04 01:53:56;;;;;;;11.63;1.83;;;16.20;62.90;;;;;;3926194;30;20381;-66
2023/03/04 01:56:40;;;;;;;5.32;1.88;;;16.20;61.90;;;;;;3925884;30;20059;-66
2023/03/04 01:59:22;;;;;;;7.85;1.50;;;16.10;63.20;;;;;;3915233;30;20071;-70
2023/03/04 02:02:04;;;;;;;5.72;1.95;;;16.00;62.50;;;;;;3919638;30;20209;-70
2023/03/04 02:04:44;;;;;;;6.40;1.33;;;15.90;62.40;;;;;;3901045;30;20067;-70
2023/03/04 02:07:26;;;;;;;6.45;2.17;;;15.90;63.00;;;;;;3911555;30;20428;-70
2023/03/04 02:10:08;;;;;;;5.82;2.20;;;15.90;63.50;;;;;;3911748;30;20155;-70
2023/03/04 02:12:50;;;;;;;10.60;2.08;;;16.00;63.20;;;;;;3902174;30;20924;-70
2023/03/04 02:15:31;;;;;;;8.80;2.00;;;16.10;63.00;;;;;;3911359;30;20060;-71
2023/03/04 02:18:15;;;;;;;10.73;2.05;;;16.10;62.90;;;;;;3910761;30;20063;-70
2023/03/04 02:21:02;;;;;;;9.50;1.77;;;16.20;62.70;;;;;;3919258;30;20056;-71
2023/03/04 02:23:49;;;;;;;5.85;1.85;;;16.30;62.50;;;;;;3926324;30;20060;-70
2023/03/04 02:26:33;;;;;;;5.18;1.55;;;16.30;62.30;;;;;;3914997;30;20059;-71
2023/03/04 02:29:16;;;;;;;11.40;2.17;;;16.30;62.30;;;;;;3917812;30;20063;-70
2023/03/04 02:31:57;;;;;;;9.02;2.38;;;16.30;62.30;;;;;;3903489;30;20056;-70
2023/03/04 02:34:42;;;;;;;7.38;1.42;;;16.30;62.30;;;;;;3893291;30;20059;-67
2023/03/04 02:37:26;;;;;;;6.88;1.88;;;16.20;62.30;;;;;;3922231;30;20133;-66
2023/03/04 02:40:14;;;;;;;4.22;1.52;;;16.20;62.60;;;;;;3917513;30;20185;-66
2023/03/04 02:42:59;;;;;;;6.55;1.98;;;16.20;62.60;;;;;;3917328;30;20063;-66
2023/03/04 02:45:43;;;;;;;7.00;1.38;;;16.20;62.70;;;;;;3917688;30;20109;-67
2023/03/04 02:48:24;;;;;;;9.75;1.95;;;16.20;62.80;;;;;;3917410;30;20646;-66
2023/03/04 02:51:06;;;;;;;4.60;1.58;;;16.30;63.80;;;;;;3928069;30;20072;-66
2023/03/04 02:53:46;;;;;;;9.43;2.20;;;16.20;62.60;;;;;;3928574;30;20194;-66
2023/03/04 02:56:28;;;;;;;6.65;1.63;;;16.20;62.80;;;;;;3917022;30;20468;-66
2023/03/04 02:59:09;;;;;;;8.75;1.90;;;16.20;62.80;;;;;;3925726;30;20060;-67
2023/03/04 03:01:50;;;;;;;7.78;2.50;;;16.20;63.70;;;;;;3927547;30;20055;-67
2023/03/04 03:04:31;;;;;;;7.85;1.60;;;16.30;62.90;;;;;;3916662;30;20079;-65
2023/03/04 03:07:13;;;;;;;10.60;1.90;;;16.20;63.00;;;;;;3916901;30;20063;-66
2023/03/04 03:09:54;;;;;;;10.25;1.80;;;16.20;63.10;;;;;;3917190;30;20101;-66
2023/03/04 03:12:35;;;;;;;6.18;1.40;;;16.30;63.20;;;;;;3922895;30;20055;-66
2023/03/04 03:15:18;;;;;;;9.65;1.60;;;16.30;63.20;;;;;;3916920;30;20055;-66
2023/03/04 03:17:59;;;;;;;12.15;1.77;;;16.30;62.80;;;;;;3916534;30;20065;-66
2023/03/04 03:20:40;;;;;;;7.40;1.43;;;16.30;62.90;;;;;;3916492;30;20462;-66
2023/03/04 03:23:21;;;;;;;;;;;16.30;63.80;;;;;;3927852;30;20643;-66
2023/03/04 03:26:02;;;;;;;8.57;1.65;;;16.20;63.20;;;;;;3927693;30;20340;-66
2023/03/04 03:28:44;;;;;;;8.73;1.77;;;16.30;63.40;;;;;;3916164;30;20200;-66
2023/03/04 03:31:26;;;;;;;13.95;2.13;;;16.30;63.20;;;;;;3913216;30;20707;-65
2023/03/04 03:34:06;;;;;;;6.70;1.75;;;16.30;63.10;;;;;;3913443;30;20062;-66
2023/03/04 03:36:48;;;;;;;11.70;1.85;;;16.20;63.20;;;;;;3913150;30;20393;-67
2023/03/04 03:39:29;;;;;;;6.85;1.75;;;16.20;63.30;;;;;;3916355;30;20516;-66
2023/03/04 03:42:09;;;;;;;4.82;1.58;;;16.20;63.40;;;;;;3925262;30;20073;-66
2023/03/04 03:44:50;;;;;;;11.05;1.83;;;16.20;63.40;;;;;;3927770;30;20105;-67
2023/03/04 03:47:33;;;;;;;5.63;1.42;;;16.10;63.40;;;;;;3908596;30;20059;-67
2023/03/04 03:50:14;;;;;;;12.35;2.25;;;16.10;63.50;;;;;;3913140;30;20055;-68
2023/03/04 03:52:54;;;;;;;8.88;1.92;;;16.10;63.60;;;;;;3902104;30;20060;-66
2023/03/04 03:55:35;;;;;;;6.70;1.58;;;16.00;63.80;;;;;;3912873;30;20552;-66
2023/03/04 03:58:16;;;;;;;7.20;1.58;;;16.00;64.30;;;;;;3906587;30;20065;-67
2023/03/04 04:00:57;;;;;;;3.55;1.35;;;16.00;65.00;;;;;;3927428;30;20055;-67
2023/03/04 04:03:39;;;;;;;6.32;1.85;;;16.10;64.00;;;;;;3927490;30;20106;-67
2023/03/04 04:06:20;;;;;;;7.93;1.75;;;16.10;63.70;;;;;;3912803;30;20067;-67
2023/03/04 04:09:01;;;;;;;8.07;1.85;;;16.10;63.70;;;;;;3922898;30;20070;-67
2023/03/04 04:11:42;;;;;;;8.40;1.30;;;16.10;63.90;;;;;;3912519;30;20142;-67
2023/03/04 04:14:23;;;;;;;6.00;1.38;;;16.10;63.90;;;;;;3912487;30;20467;-66
2023/03/04 04:17:04;;;;;;;5.53;0.95;;;16.20;63.80;;;;;;3901537;30;20559;-66
2023/03/04 04:19:46;;;;;;;4.78;1.55;;;16.30;63.40;;;;;;3916749;30;20171;-67
2023/03/04 04:22:26;;;;;;;5.30;1.67;;;16.30;63.20;;;;;;3919587;30;20153;-67
2023/03/04 04:25:09;;;;;;;4.93;1.20;;;16.30;63.10;;;;;;3912507;30;20585;-66
2023/03/04 04:27:50;;;;;;;4.47;1.48;;;16.30;63.10;;;;;;3913868;30;20072;-67
2023/03/04 04:30:31;;;;;;;4.18;1.00;;;16.20;63.30;;;;;;3920217;30;20059;-67
2023/03/04 04:33:12;;;;;;;7.13;1.37;;;16.20;63.40;;;;;;3927428;30;20055;-67
2023/03/04 04:35:54;;;;;;;5.28;1.33;;;16.30;63.50;;;;;;3927484;30;20054;-67
2023/03/04 04:38:36;;;;;;;5.13;1.33;;;16.30;63.50;;;;;;3927040;30;20059;-67
2023/03/04 04:41:20;;;;;;;3.95;1.27;;;16.30;63.30;;;;;;3926608;30;20063;-67
2023/03/04 04:44:01;;;;;;;3.17;1.63;;;16.30;63.30;;;;;;3926955;30;20585;-67
2023/03/04 04:46:42;;;;;;;9.45;1.38;;;16.30;63.40;;;;;;3926950;30;20055;-67
2023/03/04 04:49:23;;;;;;;3.85;1.27;;;16.20;63.30;;;;;;3926262;30;20055;-67
2023/03/04 04:52:06;;;;;;;9.32;1.30;;;16.20;63.40;;;;;;3926929;30;20192;-66
2023/03/04 04:54:47;;;;;;;7.03;1.10;;;16.20;63.50;;;;;;3926833;30;20059;-65
2023/03/04 04:57:27;;;;;;;5.97;1.60;;;16.20;63.60;;;;;;3925147;30;20179;-66
2023/03/04 05:00:10;;;;;;;4.45;1.27;;;16.20;63.70;;;;;;3912167;30;20695;-65
2023/03/04 05:02:50;;;;;;;11.02;1.92;;;16.30;63.60;;;;;;3912006;30;20142;-66
2023/03/04 05:05:31;;;;;;;5.68;0.88;;;16.30;63.70;;;;;;3912144;30;20067;-66
2023/03/04 05:08:13;;;;;;;4.57;1.52;;;16.20;63.60;;;;;;3915115;30;20050;-67
2023/03/04 05:10:54;;;;;;;4.15;1.48;;;16.20;63.60;;;;;;3926755;30;20067;-66
2023/03/04 05:13:35;;;;;;;3.53;1.02;;;16.10;63.60;;;;;;3920072;30;20102;-67
2023/03/04 05:16:18;;;;;;;6.95;1.33;;;16.10;63.90;;;;;;3914073;30;20114;-67
2023/03/04 05:18:58;;;;;;;3.22;0.77;;;16.10;64.30;;;;;;3916623;30;20071;-67
2023/03/04 05:21:39;;;;;;;3.95;1.20;;;16.10;64.30;;;;;;3926608;30;20428;-66
2023/03/04 05:24:22;;;;;;;3.63;1.30;;;16.10;64.20;;;;;;3915681;30;20067;-67
2023/03/04 05:27:02;;;;;;;6.38;1.15;;;16.20;64.00;;;;;;3926334;30;20507;-66
2023/03/04 05:29:45;;;;;;;8.32;2.17;;;16.20;63.80;;;;;;3926357;30;20137;-66
2023/03/04 05:32:27;;;;;;;3.78;1.10;;;16.30;63.70;;;;;;3924784;30;20067;-66
2023/03/04 05:35:08;;;;;;;5.90;1.13;;;16.30;63.80;;;;;;3926204;30;20196;-66
2023/03/04 05:37:49;;;;;;;;;;;16.30;63.80;;;;;;3915529;30;20202;-66
2023/03/04 05:40:32;;;;;;;6.70;1.08;;;16.30;63.80;;;;;;3926241;30;19934;-67
2023/03/04 05:43:13;;;;;;;5.07;1.73;;;16.30;63.90;;;;;;3926124;30;20137;-66
2023/03/04 05:45:54;;;;;;;6.10;1.60;;;16.30;63.70;;;;;;3926073;30;20067;-66
2023/03/04 05:48:35;;;;;;;8.80;1.65;;;16.30;63.60;;;;;;3911340;30;20063;-66
2023/03/04 05:51:16;;;;;;;5.22;1.75;;;16.20;63.70;;;;;;3920144;30;20055;-66
2023/03/04 05:53:56;;;;;;;6.85;1.45;;;16.20;64.00;;;;;;3900800;30;20474;-66
2023/03/04 05:56:39;;;;;;;6.63;1.73;;;16.20;64.10;;;;;;3907821;30;21024;-66
2023/03/04 05:59:19;;;;;;;7.97;1.63;;;16.30;63.90;;;;;;3926210;30;20383;-66
2023/03/04 06:02:00;;;;;;;6.68;1.63;;;16.30;63.40;;;;;;3928452;30;20216;-65
2023/03/04 06:04:41;;;;;;;5.53;1.27;;;16.30;63.50;;;;;;3918004;30;20878;-65
2023/03/04 06:07:22;;;;;;;5.50;1.50;;;16.30;63.70;;;;;;3923311;30;20072;-65
2023/03/04 06:10:03;;;;;;;5.13;1.17;;;16.30;63.80;;;;;;3928528;30;20297;-66
2023/03/04 06:12:46;;;;;;;5.40;1.45;;;16.30;64.10;;;;;;3928794;30;20067;-66
2023/03/04 06:15:27;;;;;;;10.18;1.63;;;16.30;64.10;;;;;;3928687;30;20488;-66
2023/03/04 06:18:08;;;;;;;8.10;1.60;;;16.30;64.80;;;;;;3925584;30;20072;-65
2023/03/04 06:20:49;;;;;;;3.00;1.20;;;16.30;63.90;;;;;;3917763;30;20533;-66
2023/03/04 06:23:31;;;;;;;4.93;1.35;;;16.30;64.00;;;;;;3914287;30;20175;-65
2023/03/04 06:26:14;;;;;;;3.53;1.15;;;16.30;64.20;;;;;;3925375;30;20067;-65
2023/03/04 06:28:56;;;;;;;4.03;1.27;;;16.20;63.70;;;;;;3929152;30;20203;-65
2023/03/04 06:31:38;;;;;;;4.45;1.02;;;16.10;63.30;;;;;;3928632;30;20186;-66
2023/03/04 06:34:19;;;;;;;;;;;16.10;64.00;;;;;;3929435;30;20547;-66
2023/03/04 06:37:00;;;;;;;3.65;0.82;;;16.00;65.10;;;;;;3917091;30;20057;-65
2023/03/04 06:39:41;;;;;;;5.13;1.13;;;16.10;64.80;;;;;;3928876;30;20059;-65
2023/03/04 06:42:22;;;;;;;3.88;0.90;;;16.10;64.30;;;;;;3928775;30;20182;-64
2023/03/04 06:45:06;;;;;;;3.60;1.05;;;16.10;64.60;;;;;;3922883;30;20110;-65
2023/03/04 06:47:47;;;;;;;4.60;1.02;;;16.20;64.60;;;;;;3918483;30;20069;-65
2023/03/04 06:50:28;;;;;;;5.25;1.30;;;16.20;64.10;;;;;;3920961;30;20062;-66
2023/03/04 06:53:09;;;;;;;4.30;1.27;;;16.20;63.50;;;;;;3927910;30;20129;-65
2023/03/04 06:55:50;;;;;;;6.15;1.30;;;16.20;62.60;;;;;;3917809;30;20067;-65
2023/03/04 06:58:31;;;;;;;3.30;1.02;;;16.20;62.50;;;;;;3927709;30;20063;-65
2023/03/04 07:01:16;;;;;;;5.32;1.30;;;16.20;63.50;;;;;;3917120;30;20063;-65
2023/03/04 07:03:57;;;;;;;6.85;1.52;;;16.20;63.10;;;;;;3916900;30;20074;-67
2023/03/04 07:06:39;;;;;;;5.82;2.00;;;16.10;63.40;;;;;;3926049;30;20274;-66
2023/03/04 07:09:20;;;;;;;7.13;1.77;;;16.10;63.30;;;;;;3924219;30;20069;-66
2023/03/04 07:12:00;;;;;;;5.97;1.60;;;16.10;63.00;;;;;;3919530;30;20090;-66
2023/03/04 07:14:41;;;;;;;11.70;2.17;;;16.20;63.30;;;;;;3924584;30;20055;-65
2023/03/04 07:17:23;;;;;;;9.50;2.67;;;16.20;62.70;;;;;;3914073;30;20356;-65
2023/03/04 07:20:05;;;;;;;14.75;2.35;;;16.10;62.80;;;;;;3913247;30;20059;-64
2023/03/04 07:22:46;;;;;;;6.70;2.10;;;16.00;62.70;;;;;;3913199;30;20199;-65
2023/03/04 07:25:27;;;;;;;8.05;2.28;;;16.00;63.20;;;;;;3912952;30;20079;-65
2023/03/04 07:28:07;;;;;;;10.87;2.90;;;15.90;63.60;;;;;;3902624;30;20055;-65
2023/03/04 07:30:48;;;;;;;15.45;3.30;;;15.80;64.00;;;;;;3927653;30;20117;-65
2023/03/04 07:33:30;;;;;;;12.18;3.10;;;15.80;63.60;;;;;;3923440;30;20063;-65
2023/03/04 07:36:13;;;;;;;8.80;2.30;;;15.80;64.00;;;;;;3913048;30;20521;-65
2023/03/04 07:38:54;;;;;;;14.30;2.72;;;15.80;64.00;;;;;;3913018;30;20082;-65
2023/03/04 07:41:36;;;;;;;14.70;3.22;;;15.80;63.90;;;;;;3912832;30;20163;-65
2023/03/04 07:44:17;;;;;;;11.07;2.42;;;15.80;64.00;;;;;;3922404;30;20067;-64
2023/03/04 07:46:57;;;;;;;16.10;2.95;;;15.80;64.00;;;;;;3927429;30;20458;-65
2023/03/04 07:49:40;;;;;;;13.05;3.35;;;15.80;64.30;;;;;;3927584;30;20618;-65
2023/03/04 07:52:21;;;;;;;12.77;3.03;;;15.80;64.00;;;;;;3927403;30;20059;-64
2023/03/04 07:55:02;;;;;;;14.68;3.22;;;15.80;63.90;;;;;;3922752;30;20108;-64
2023/03/04 07:57:44;;;;;;;12.10;3.10;;;15.80;63.40;;;;;;3927495;30;20145;-64
2023/03/04 08:00:25;;;;;;;10.15;2.85;;;15.80;63.90;;;;;;3927385;30;20397;-65
2023/03/04 08:03:06;;;;;;;12.90;2.80;;;15.80;63.10;;;;;;3926329;30;20059;-65
2023/03/04 08:05:48;;;;;;;9.95;2.60;;;15.80;63.30;;;;;;3920751;30;20158;-66
2023/03/04 08:08:29;;;;;;;15.77;2.60;;;15.70;63.10;;;;;;3912703;30;20063;-66
2023/03/04 08:11:12;;;;;;;14.67;3.73;;;15.70;62.90;;;;;;3912763;30;20063;-65
2023/03/04 08:13:53;;;;;;;14.27;2.75;;;15.70;63.10;;;;;;3926289;30;20059;-65
2023/03/04 08:16:35;;;;;;;15.70;3.58;;;15.80;63.10;;;;;;3919997;30;20109;-65
2023/03/04 08:19:15;;;;;;;12.13;3.25;;;15.80;63.30;;;;;;3927211;30;20059;-65
2023/03/04 08:21:58;;;;;;;12.35;2.95;;;15.90;63.20;;;;;;3927016;30;20071;-65
2023/03/04 08:24:38;;;;;;;14.52;3.50;;;15.80;63.30;;;;;;3915570;30;20209;-66
2023/03/04 08:27:19;;;;;;;14.75;3.17;;;15.80;63.10;;;;;;3912633;30;20516;-65
2023/03/04 08:30:00;;;;;;;;;;;15.80;63.70;;;;;;3913140;30;20082;-64
2023/03/04 08:32:42;;;;;;;14.95;2.80;;;15.80;63.50;;;;;;3912592;30;19937;-64
2023/03/04 08:35:23;;;;;;;10.45;2.60;;;15.70;63.40;;;;;;3914525;30;20060;-64
2023/03/04 08:38:05;;;;;;;14.85;3.97;;;15.80;63.70;;;;;;3925070;30;20567;-64
2023/03/04 08:40:52;;;;;;;15.15;3.28;;;15.70;63.10;;;;;;3901332;30;20064;-64
2023/03/04 08:43:34;;;;;;;13.75;3.15;;;15.70;62.80;;;;;;3912659;30;20056;-64
2023/03/04 08:46:15;;;;;;;14.35;3.33;;;15.60;62.90;;;;;;3920161;30;20201;-64
2023/03/04 08:48:55;;;;;;;12.32;2.97;;;15.50;62.80;;;;;;3915138;30;20129;-64
2023/03/04 08:51:36;;;;;;;10.73;2.77;;;15.50;61.70;;;;;;3904065;30;20523;-64
2023/03/04 08:54:18;;;;;;;10.77;2.90;;;15.40;62.00;;;;;;3912458;30;20369;-64
2023/03/04 08:56:59;;;;;;;12.52;2.88;;;15.30;62.20;;;;;;3914974;30;20157;-64
2023/03/04 08:59:39;;;;;;;14.70;3.30;;;15.30;60.70;;;;;;3922251;30;20163;-66
2023/03/04 09:02:20;;;;;;;16.50;3.58;;;15.20;61.10;;;;;;3922766;30;20068;-64
2023/03/04 09:05:01;;;;;;;14.93;3.20;;;15.00;60.10;;;;;;3924847;30;20073;-65
2023/03/04 09:07:42;;;;;;;20.90;4.53;;;15.00;61.20;;;;;;3915837;30;20092;-65
2023/03/04 09:10:25;;;;;;;11.40;3.60;;;14.90;62.80;;;;;;3926548;30;20051;-65
2023/03/04 09:13:06;;;;;;;16.30;3.97;;;14.90;62.20;;;;;;3912627;30;20145;-64
2023/03/04 09:15:49;;;;;;;12.32;2.85;;;14.80;63.80;;;;;;3925973;30;20101;-64
2023/03/04 09:18:30;;;;;;;15.45;2.70;;;14.90;62.70;;;;;;3926222;30;20086;-64
2023/03/04 09:21:11;;;;;;;7.85;2.38;;;14.80;62.30;;;;;;3925299;30;20063;-65
2023/03/04 09:23:52;;;;;;;7.22;1.75;;;14.70;61.80;;;;;;3926212;30;20051;-65
2023/03/04 09:26:34;;;;;;;6.25;1.65;;;14.70;61.20;;;;;;3916139;30;20070;-64
2023/03/04 09:29:15;;;;;;;3.70;1.20;;;14.60;59.40;;;;;;3912166;30;20390;-70
2023/03/04 09:31:56;;;;;;;4.32;1.50;;;14.60;59.60;;;;;;3926149;30;20064;-65
2023/03/04 09:34:37;;;;;;;6.50;1.48;;;14.50;61.30;;;;;;3901253;30;20051;-64
2023/03/04 09:37:18;;;;;;;7.00;1.02;;;14.40;62.00;;;;;;3929111;30;20059;-64
2023/03/04 09:39:59;;;;;;;4.28;0.88;;;14.40;62.00;;;;;;3918273;30;20124;-65
2023/03/04 09:42:46;;;;;;;6.72;2.00;;;14.30;62.30;;;;;;3914919;30;20110;-65
2023/03/04 09:45:34;;;;;;;5.45;1.10;;;14.30;62.20;;;;;;3914851;30;20063;-64
2023/03/04 09:48:18;;;;;;;5.85;1.20;;;14.20;61.70;;;;;;3929132;30;20059;-64
2023/03/04 09:51:16;;;;;;;5.18;1.35;;;14.20;61.60;;;;;;3916731;30;20055;-64
2023/03/04 09:54:06;;;;;;;5.00;1.58;;;14.20;63.00;;;;;;3922685;30;20466;-65
2023/03/04 09:56:51;;;;;;;7.00;1.60;;;14.30;63.70;;;;;;3924741;30;20063;-64
2023/03/04 09:59:44;;;;;;;8.30;2.05;;;14.40;63.50;;;;;;3928614;30;20055;-65
2023/03/04 10:02:32;;;;;;;6.10;2.05;;;14.40;63.40;;;;;;3928682;30;20149;-65
2023/03/04 10:05:17;;;;;;;7.60;2.05;;;14.40;62.20;;;;;;3928598;30;20109;-64
2023/03/04 10:08:00;;;;;;;9.32;2.13;;;14.40;60.10;;;;;;3903435;30;20047;-66
2023/03/04 10:10:42;;;;;;;9.65;2.58;;;14.40;60.10;;;;;;3913548;30;20063;-64
2023/03/04 10:13:31;;;;;;;10.15;2.92;;;14.30;60.60;;;;;;3925593;30;20467;-64
2023/03/04 10:16:20;;;;;;;15.55;3.50;;;14.20;61.90;;;;;;3911616;30;20060;-64
2023/03/04 10:19:11;;;;;;;18.77;4.75;;;14.20;61.80;;;;;;3914310;30;20059;-65
2023/03/04 10:21:52;;;;;;;12.55;2.90;;;14.20;63.30;;;;;;3908641;30;20075;-65
2023/03/04 10:24:34;;;;;;;12.65;3.55;;;14.30;63.90;;;;;;3928727;30;20069;-65
2023/03/04 10:27:18;;;;;;;10.77;2.65;;;14.40;63.80;;;;;;3929283;30;20063;-65
2023/03/04 10:30:00;;;;;;;12.30;3.28;;;14.70;63.00;;;;;;3928479;30;20109;-65
2023/03/04 10:32:47;;;;;;;10.10;2.55;;;14.90;61.50;;;;;;3918793;30;20160;-66
2023/03/04 10:35:37;;;;;;;11.07;2.75;;;15.20;59.50;;;;;;3920112;30;20063;-65
2023/03/04 10:38:20;;;;;;;11.13;3.30;;;15.30;57.30;;;;;;3914171;30;20059;-65
2023/03/04 10:41:02;;;;;;;8.48;2.65;;;15.50;56.50;;;;;;3913857;30;20059;-64
2023/03/04 10:43:45;;;;;;;10.45;2.75;;;15.60;56.30;;;;;;3903083;30;20064;-65
2023/03/04 10:46:26;;;;;;;8.55;2.50;;;15.70;55.60;;;;;;3913275;30;20064;-64
2023/03/04 10:49:10;;;;;;;9.32;1.92;;;15.90;55.50;;;;;;3903154;30;20086;-64
2023/03/04 10:51:53;;;;;;;10.88;2.35;;;16.10;55.50;;;;;;3913906;30;20141;-64
2023/03/04 10:54:42;;;;;;;12.70;2.95;;;16.10;55.00;;;;;;3916398;30;20059;-64
2023/03/04 10:57:27;;;;;;;10.77;2.60;;;16.10;54.70;;;;;;3924589;30;20063;-64
2023/03/04 11:00:25;;;;;;;8.20;2.65;;;16.10;54.90;;;;;;3928249;30;20048;-64
2023/03/04 11:03:25;;;;;;;10.93;2.95;;;16.00;55.60;;;;;;3904000;30;20060;-65
2023/03/04 11:06:18;;;;;;;14.18;3.15;;;15.90;56.70;;;;;;3913332;30;20963;-65
2023/03/04 11:09:00;;;;;;;8.32;2.47;;;15.80;57.10;;;;;;3902241;30;20071;-64
2023/03/04 11:11:44;;;;;;;10.90;3.03;;;15.80;56.80;;;;;;3907340;30;20083;-64
2023/03/04 11:14:29;;;;;;;10.50;2.33;;;15.70;56.40;;;;;;3913882;30;20202;-64
2023/03/04 11:17:19;;;;;;;9.73;2.80;;;15.70;57.40;;;;;;3925850;30;20071;-64
2023/03/04 11:20:12;;;;;;;13.30;2.20;;;15.70;57.30;;;;;;3927876;30;20070;-65
2023/03/04 11:22:58;;;;;;;10.05;2.60;;;15.60;54.80;;;;;;3927766;30;20117;-65
2023/03/04 11:25:43;;;;;;;9.07;2.75;;;15.50;56.20;;;;;;3927129;30;20101;-65
2023/03/04 11:28:29;;;;;;;10.57;3.17;;;15.50;56.40;;;;;;3927882;30;20063;-64
2023/03/04 11:31:14;;;;;;;9.80;2.50;;;15.70;56.20;;;;;;3927761;30;20504;-65
2023/03/04 11:34:00;;;;;;;13.73;2.85;;;15.70;56.20;;;;;;3927373;30;20393;-64
2023/03/04 11:36:53;;;;;;;13.05;2.80;;;15.70;57.10;;;;;;3913263;30;20114;-64
2023/03/04 11:39:38;;;;;;;12.88;3.25;;;15.70;56.80;;;;;;3914331;30;20075;-66
2023/03/04 11:42:31;;;;;;;13.85;2.97;;;15.70;56.40;;;;;;3910109;30;20051;-66
2023/03/04 11:45:14;;;;;;;13.68;3.40;;;15.60;55.50;;;;;;3927275;30;20144;-66
2023/03/04 11:48:16;;;;;;;12.85;2.80;;;15.50;55.90;;;;;;3920315;30;20051;-66
2023/03/04 11:51:04;;;;;;;9.40;2.90;;;15.40;56.90;;;;;;3902163;30;20203;-65
2023/03/04 11:53:57;;;;;;;10.93;2.58;;;15.30;56.50;;;;;;3907261;30;20185;-72
2023/03/04 11:56:43;;;;;;;8.90;2.83;;;15.20;56.10;;;;;;3920819;30;20067;-70
2023/03/04 11:59:44;;;;;;;10.43;2.58;;;15.20;57.00;;;;;;3926619;30;20055;-71
2023/03/04 12:02:32;;;;;;;13.23;3.13;;;15.20;57.90;;;;;;3915819;30;20058;-72
2023/03/04 12:05:21;;;;;;;12.27;2.80;;;15.30;58.70;;;;;;3916400;30;20055;-72
2023/03/04 12:08:16;;;;;;;7.75;2.35;;;15.40;58.50;;;;;;3927513;30;20055;-72
2023/03/04 12:11:03;;;;;;;12.55;3.47;;;15.40;58.40;;;;;;3926829;30;20075;-73
2023/03/04 12:14:00;;;;;;;12.43;2.38;;;15.60;58.50;;;;;;3927020;30;20060;-72
2023/03/04 12:16:54;;;;;;;14.18;2.90;;;15.70;58.50;;;;;;3926477;30;20063;-71
2023/03/04 12:19:44;;;;;;;13.48;2.45;;;15.70;57.30;;;;;;3926648;30;20063;-72
2023/03/04 12:22:34;;;;;;;13.50;3.42;;;15.70;56.10;;;;;;3916431;30;20063;-71
2023/03/04 12:25:36;;;;;;;12.45;3.00;;;15.80;55.50;;;;;;3925331;30;20059;-72
2023/03/04 12:28:51;;;;;;;13.27;3.33;;;15.80;55.30;;;;;;3915678;30;20205;-72
2023/03/04 12:31:38;;;;;;;13.23;3.08;;;15.80;54.90;;;;;;3901459;30;20059;-71
2023/03/04 12:34:46;;;;;;;13.00;3.30;;;15.80;54.80;;;;;;3912391;30;20063;-73
2023/03/04 12:37:57;;;;;;;12.68;3.20;;;15.70;54.60;;;;;;3905232;30;20065;-71
2023/03/04 12:40:43;;;;;;;8.05;2.00;;;15.70;55.70;;;;;;3920388;30;20137;-71
2023/03/04 12:43:36;;;;;;;9.40;2.22;;;15.80;55.60;;;;;;3926789;30;20426;-72
2023/03/04 12:46:26;;;;;;;11.60;3.63;;;15.80;55.30;;;;;;3926456;30;20096;-71
2023/03/04 12:49:23;;;;;;;11.20;2.80;;;15.90;54.70;;;;;;3912169;30;20064;-72
2023/03/04 12:52:13;;;;;;;10.25;2.42;;;15.90;55.10;;;;;;3914034;30;20063;-72
2023/03/04 12:54:58;;;;;;;13.00;2.75;;;16.00;54.80;;;;;;3915853;30;20055;-72
2023/03/04 12:57:39;;;;;;;10.70;2.92;;;16.00;55.60;;;;;;3926093;30;20192;-72
2023/03/04 13:00:33;;;;;;;12.23;3.67;;;16.10;55.70;;;;;;3915636;30;20421;-73
2023/03/04 13:03:21;;;;;;;11.40;2.97;;;16.00;55.10;;;;;;3926432;30;20406;-72
2023/03/04 13:06:23;;;;;;;13.10;4.20;;;16.00;55.30;;;;;;3926806;30;20504;-72
2023/03/04 13:09:11;;;;;;;11.30;5.28;;;16.00;54.80;;;;;;3901181;30;20079;-73
2023/03/04 13:11:56;;;;;;;10.48;4.75;;;16.00;56.00;;;;;;3912150;30;20567;-70
2023/03/04 13:14:38;;;;;;;7.90;2.35;;;16.00;55.70;;;;;;3912133;30;20509;-70
2023/03/04 13:17:49;;;;;;;10.75;4.95;;;15.90;56.40;;;;;;3903750;30;20059;-71
2023/03/04 13:20:39;;;;;;;16.60;5.72;;;16.00;57.00;;;;;;3897450;30;20071;-71
2023/03/04 13:23:30;;;;;;;14.43;3.00;;;16.10;55.60;;;;;;3909271;30;20145;-71
2023/03/04 13:26:20;;;;;;;;;;;16.10;54.80;;;;;;3901372;30;20087;-71
2023/03/04 13:29:33;;;;;;;14.82;2.65;;;16.20;55.20;;;;;;3908087;30;19936;-72
2023/03/04 13:32:33;;;;;;;5.93;2.45;;;16.10;53.90;;;;;;3897380;30;20075;-71
2023/03/04 13:35:48;;;;;;;12.90;2.77;;;16.10;54.40;;;;;;3902691;30;20067;-72
2023/03/04 13:38:36;;;;;;;8.70;3.38;;;16.00;53.80;;;;;;3900691;30;20409;-71
2023/03/04 13:41:21;;;;;;;13.25;2.38;;;15.90;54.10;;;;;;3911615;30;20052;-71
2023/03/04 13:44:06;;;;;;;11.90;2.83;;;15.80;54.50;;;;;;3911892;30;20080;-71
2023/03/04 13:46:46;;;;;;;12.25;3.08;;;15.60;53.40;;;;;;3901125;30;20055;-71
2023/03/04 13:49:28;;;;;;;11.88;3.33;;;15.60;54.80;;;;;;3911536;30;20567;-70
2023/03/04 13:52:37;;;;;;;10.27;4.95;;;15.50;54.40;;;;;;3910454;30;20051;-70
2023/03/04 13:55:43;;;;;;;9.13;2.72;;;15.30;54.70;;;;;;3896772;30;20135;-69
2023/03/04 13:58:27;;;;;;;6.68;2.22;;;15.30;54.50;;;;;;3895997;30;20064;-69
2023/03/04 14:01:27;;;;;;;9.40;2.88;;;15.20;54.70;;;;;;3910561;30;20062;-69
2023/03/04 14:04:16;;;;;;;9.45;2.55;;;15.10;55.20;;;;;;3908532;30;20056;-70
2023/03/04 14:06:59;;;;;;;9.75;2.97;;;15.10;55.80;;;;;;3911881;30;20058;-71
2023/03/04 14:09:40;;;;;;;9.45;3.03;;;15.00;55.90;;;;;;3911478;30;20063;-69